createdAt,value
2022-10-25T00:00:41.932Z,14.70
2022-10-25T00:03:13.129Z,14.70
2022-10-25T00:05:42.097Z,14.70
2022-10-25T00:08:10.473Z,14.70
2022-10-25T00:10:38.653Z,14.70
2022-10-25T00:13:07.009Z,14.70
2022-10-25T00:15:35.010Z,14.60
2022-10-25T00:18:03.074Z,14.60
2022-10-25T00:20:32.400Z,14.50
2022-10-25T00:23:00.315Z,14.50
2022-10-25T00:25:28.420Z,14.50
2022-10-25T00:27:56.375Z,14.50
2022-10-25T00:30:24.300Z,14.50
2022-10-25T00:32:52.891Z,14.40
2022-10-25T00:35:21.087Z,14.40
2022-10-25T00:37:50.628Z,14.40
2022-10-25T00:40:18.886Z,14.40
2022-10-25T00:42:47.198Z,14.50
2022-10-25T00:45:26.244Z,14.50
2022-10-25T00:48:01.527Z,14.50
2022-10-25T00:50:43.521Z,14.50
2022-10-25T00:53:15.968Z,14.50
2022-10-25T00:55:47.788Z,14.40
2022-10-25T00:58:20.591Z,14.50
2022-10-25T01:00:50.420Z,14.50
2022-10-25T01:03:20.227Z,14.40
2022-10-25T01:05:49.158Z,14.40
2022-10-25T01:08:20.885Z,14.40
2022-10-25T01:10:49.561Z,14.40
2022-10-25T01:13:17.628Z,14.40
2022-10-25T01:15:57.995Z,14.40
2022-10-25T01:18:34.663Z,14.40
2022-10-25T01:21:30.310Z,14.40
2022-10-25T01:24:40.160Z,14.40
2022-10-25T01:27:34.708Z,14.30
2022-10-25T01:30:13.060Z,14.30
2022-10-25T01:32:56.757Z,14.30
2022-10-25T01:35:29.415Z,14.30
2022-10-25T01:38:09.512Z,14.40
2022-10-25T01:40:45.827Z,14.30
2022-10-25T01:43:21.559Z,14.40
2022-10-25T01:45:57.779Z,14.40
2022-10-25T01:48:31.380Z,14.40
2022-10-25T01:51:06.720Z,14.40
2022-10-25T01:53:34.763Z,14.40
2022-10-25T01:56:05.698Z,14.40
2022-10-25T01:58:46.217Z,14.40
2022-10-25T02:01:26.113Z,14.40
2022-10-25T02:04:01.570Z,14.40
2022-10-25T02:06:36.004Z,14.40
2022-10-25T02:09:09.396Z,14.50
2022-10-25T02:11:38.227Z,14.50
2022-10-25T02:14:18.109Z,14.50
2022-10-25T02:16:51.779Z,14.50
2022-10-25T02:19:25.203Z,14.50
2022-10-25T02:21:55.634Z,14.60
2022-10-25T02:24:26.768Z,14.60
2022-10-25T02:26:56.034Z,14.60
2022-10-25T02:29:26.797Z,14.60
2022-10-25T02:31:55.408Z,14.60
2022-10-25T02:34:25.078Z,14.60
2022-10-25T02:36:54.255Z,14.70
2022-10-25T02:39:27.644Z,14.70
2022-10-25T02:41:58.564Z,14.70
2022-10-25T02:44:26.636Z,14.70
2022-10-25T02:46:54.739Z,14.70
2022-10-25T02:49:24.194Z,14.70
2022-10-25T02:54:20.335Z,14.70
2022-10-25T02:56:52.509Z,14.60
2022-10-25T02:59:21.905Z,14.60
2022-10-25T03:01:50.082Z,14.60
2022-10-25T03:04:18.176Z,14.60
2022-10-25T03:06:47.601Z,14.50
2022-10-25T03:09:15.636Z,14.50
2022-10-25T03:11:43.667Z,14.40
2022-10-25T03:14:11.674Z,14.40
2022-10-25T03:16:39.764Z,14.40
2022-10-25T03:19:07.771Z,14.30
2022-10-25T03:21:38.637Z,14.30
2022-10-25T03:24:10.759Z,14.30
2022-10-25T03:26:38.769Z,14.20
2022-10-25T03:29:06.862Z,14.20
2022-10-25T03:31:34.917Z,14.20
2022-10-25T03:34:02.996Z,14.10
2022-10-25T03:36:31.005Z,14.10
2022-10-25T03:38:59.058Z,14.10
2022-10-25T03:41:28.453Z,14.10
2022-10-25T03:43:56.449Z,14.00
2022-10-25T03:46:24.497Z,14.00
2022-10-25T03:48:52.491Z,14.00
2022-10-25T03:51:20.499Z,14.00
2022-10-25T03:53:48.501Z,13.90
2022-10-25T03:56:16.511Z,13.90
2022-10-25T03:58:45.930Z,13.90
2022-10-25T04:01:14.383Z,13.90
2022-10-25T04:03:44.030Z,13.80
2022-10-25T04:06:12.341Z,13.80
2022-10-25T04:08:40.363Z,13.80
2022-10-25T04:11:08.390Z,13.80
2022-10-25T04:13:36.436Z,13.80
2022-10-25T04:16:09.166Z,13.80
2022-10-25T04:18:37.612Z,13.80
2022-10-25T04:21:05.797Z,13.70
2022-10-25T04:23:33.835Z,13.70
2022-10-25T04:26:01.804Z,13.70
2022-10-25T04:28:29.864Z,13.70
2022-10-25T04:30:57.876Z,13.70
2022-10-25T04:33:27.274Z,13.60
2022-10-25T04:35:56.825Z,13.60
2022-10-25T04:38:25.427Z,13.60
2022-10-25T04:40:57.498Z,13.60
2022-10-25T04:43:26.410Z,13.60
2022-10-25T04:45:55.160Z,13.50
2022-10-25T04:48:23.636Z,13.60
2022-10-25T04:50:53.014Z,13.50
2022-10-25T04:53:21.156Z,13.50
2022-10-25T04:55:57.179Z,13.50
2022-10-25T04:58:30.352Z,13.50
2022-10-25T05:01:01.469Z,13.40
2022-10-25T05:03:30.048Z,13.40
2022-10-25T05:06:06.520Z,13.40
2022-10-25T05:08:35.006Z,13.40
2022-10-25T05:11:03.087Z,13.40
2022-10-25T05:13:33.635Z,13.40
2022-10-25T05:16:01.653Z,13.40
2022-10-25T05:18:30.016Z,13.30
2022-10-25T05:21:01.306Z,13.30
2022-10-25T05:23:29.651Z,13.30
2022-10-25T05:26:05.277Z,13.30
2022-10-25T05:28:33.407Z,13.30
2022-10-25T05:31:04.495Z,13.30
2022-10-25T05:33:32.780Z,13.30
2022-10-25T05:36:03.265Z,13.30
2022-10-25T05:38:34.312Z,13.30
2022-10-25T05:41:05.186Z,13.30
2022-10-25T05:43:33.274Z,13.20
2022-10-25T05:46:06.722Z,13.20
2022-10-25T05:48:35.928Z,13.20
2022-10-25T05:54:07.158Z,13.30
2022-10-25T05:56:36.207Z,13.30
2022-10-25T05:59:08.889Z,13.40
2022-10-25T06:01:38.430Z,13.40
2022-10-25T06:04:06.926Z,13.40
2022-10-25T06:06:37.388Z,13.40
2022-10-25T06:09:06.519Z,13.40
2022-10-25T06:11:35.319Z,13.40
2022-10-25T06:14:03.545Z,13.40
2022-10-25T06:16:31.665Z,13.40
2022-10-25T06:18:59.654Z,13.50
2022-10-25T06:21:29.674Z,13.50
2022-10-25T06:24:00.245Z,13.50
2022-10-25T06:26:30.901Z,13.60
2022-10-25T06:29:00.980Z,13.60
2022-10-25T06:31:29.714Z,13.60
2022-10-25T06:33:57.755Z,13.70
2022-10-25T06:36:27.188Z,13.70
2022-10-25T06:38:55.635Z,13.80
2022-10-25T06:41:27.972Z,13.80
2022-10-25T06:43:56.512Z,13.80
2022-10-25T06:46:26.226Z,13.90
2022-10-25T06:48:56.165Z,13.90
2022-10-25T06:51:25.082Z,13.90
2022-10-25T06:53:56.059Z,13.90
2022-10-25T06:56:26.860Z,14.00
2022-10-25T06:58:55.338Z,14.00
2022-10-25T07:01:25.128Z,14.10
2022-10-25T07:03:55.059Z,14.10
2022-10-25T07:06:26.380Z,14.20
2022-10-25T07:08:56.283Z,14.20
2022-10-25T07:11:26.726Z,14.20
2022-10-25T07:13:54.855Z,14.30
2022-10-25T07:16:22.955Z,14.30
2022-10-25T07:18:51.547Z,14.30
2022-10-25T07:21:21.609Z,14.30
2022-10-25T07:23:50.886Z,14.30
2022-10-25T07:26:20.273Z,14.30
2022-10-25T07:28:51.276Z,14.40
2022-10-25T07:31:21.272Z,14.40
2022-10-25T07:33:49.530Z,14.40
2022-10-25T07:36:17.829Z,14.40
2022-10-25T07:38:46.235Z,14.40
2022-10-25T07:41:14.914Z,14.40
2022-10-25T07:43:43.258Z,14.50
2022-10-25T07:46:12.666Z,14.50
2022-10-25T07:48:40.694Z,14.50
2022-10-25T07:51:11.343Z,14.60
2022-10-25T07:53:39.497Z,14.60
2022-10-25T07:56:08.114Z,14.70
2022-10-25T07:58:36.058Z,14.70
2022-10-25T08:01:05.260Z,14.80
2022-10-25T08:03:34.964Z,14.80
2022-10-25T08:06:03.324Z,14.80
2022-10-25T08:08:32.040Z,14.80
2022-10-25T08:11:03.380Z,14.80
2022-10-25T08:13:31.351Z,14.80
2022-10-25T08:15:59.283Z,14.90
2022-10-25T08:18:28.394Z,14.90
2022-10-25T08:21:02.368Z,15.00
2022-10-25T08:23:32.364Z,15.00
2022-10-25T08:26:00.674Z,15.10
2022-10-25T08:28:30.728Z,15.10
2022-10-25T08:31:00.709Z,15.20
2022-10-25T08:33:29.172Z,15.30
2022-10-25T08:36:01.153Z,15.30
2022-10-25T08:38:29.278Z,15.40
2022-10-25T08:41:04.312Z,15.50
2022-10-25T08:46:37.352Z,15.70
2022-10-25T08:49:14.377Z,15.80
2022-10-25T08:51:47.859Z,15.90
2022-10-25T08:54:22.459Z,15.90
2022-10-25T08:57:10.658Z,16.00
2022-10-25T08:59:43.835Z,16.00
2022-10-25T09:02:19.225Z,16.00
2022-10-25T09:04:47.388Z,16.10
2022-10-25T09:07:42.743Z,16.10
2022-10-25T09:10:22.918Z,16.20
2022-10-25T09:12:59.734Z,16.20
2022-10-25T09:15:43.202Z,16.30
2022-10-25T09:18:17.493Z,16.40
2022-10-25T09:20:50.792Z,16.60
2022-10-25T09:23:55.172Z,16.80
2022-10-25T09:26:33.331Z,16.90
2022-10-25T09:29:08.267Z,16.90
2022-10-25T09:31:41.405Z,16.90
2022-10-25T09:34:11.469Z,17.00
2022-10-25T09:36:45.191Z,17.00
2022-10-25T09:39:21.759Z,17.00
2022-10-25T09:41:52.737Z,17.00
2022-10-25T09:44:32.924Z,17.00
2022-10-25T09:47:06.323Z,16.90
2022-10-25T09:49:39.654Z,16.80
2022-10-25T09:52:15.984Z,16.70
2022-10-25T09:54:50.463Z,16.60
2022-10-25T09:57:18.395Z,16.60
2022-10-25T09:59:50.394Z,16.60
2022-10-25T10:02:23.552Z,16.70
2022-10-25T10:04:51.774Z,16.60
2022-10-25T10:07:23.556Z,16.60
2022-10-25T10:09:56.622Z,16.60
2022-10-25T10:12:29.742Z,16.60
2022-10-25T10:15:02.199Z,16.60
2022-10-25T10:17:31.658Z,16.60
2022-10-25T10:20:15.134Z,16.60
2022-10-25T10:25:28.149Z,16.50
2022-10-25T10:27:58.334Z,16.50
2022-10-25T10:30:28.859Z,16.50
2022-10-25T10:33:00.172Z,16.50
2022-10-25T10:35:31.687Z,16.50
2022-10-25T10:38:23.297Z,16.50
2022-10-25T10:40:53.978Z,16.60
2022-10-25T10:43:35.218Z,16.60
2022-10-25T10:46:05.868Z,16.70
2022-10-25T10:48:41.823Z,16.80
2022-10-25T10:51:25.244Z,16.80
2022-10-25T10:54:01.450Z,16.80
2022-10-25T10:56:33.273Z,16.80
2022-10-25T10:59:01.228Z,16.70
2022-10-25T11:01:33.997Z,16.70
2022-10-25T11:04:03.323Z,16.60
2022-10-25T11:06:33.014Z,16.60
2022-10-25T11:09:16.070Z,16.60
2022-10-25T11:11:46.165Z,16.70
2022-10-25T11:14:16.148Z,16.70
2022-10-25T11:16:54.179Z,16.70
2022-10-25T11:19:53.806Z,16.70
2022-10-25T11:22:40.670Z,16.70
2022-10-25T11:25:32.190Z,16.70
2022-10-25T11:28:15.555Z,16.80
2022-10-25T11:30:52.926Z,16.80
2022-10-25T11:33:38.720Z,16.90
2022-10-25T11:36:51.544Z,17.00
2022-10-25T11:39:48.069Z,17.20
2022-10-25T11:42:47.171Z,17.30
2022-10-25T11:45:33.083Z,17.40
2022-10-25T11:48:23.485Z,17.40
2022-10-25T11:51:00.411Z,17.40
2022-10-25T11:53:43.568Z,17.50
2022-10-25T11:56:20.005Z,17.60
2022-10-25T11:58:56.751Z,17.60
2022-10-25T12:01:37.083Z,17.50
2022-10-25T12:04:27.012Z,17.50
2022-10-25T12:07:04.070Z,17.50
2022-10-25T12:09:42.267Z,17.50
2022-10-25T12:12:13.784Z,17.40
2022-10-25T12:14:47.583Z,17.30
2022-10-25T12:17:24.568Z,17.30
2022-10-25T12:19:54.168Z,17.30
2022-10-25T12:22:27.173Z,17.30
2022-10-25T12:25:00.436Z,17.30
2022-10-25T12:27:30.696Z,17.50
2022-10-25T12:30:03.772Z,17.50
2022-10-25T12:32:38.494Z,17.50
2022-10-25T12:35:18.715Z,17.40
2022-10-25T12:37:56.484Z,17.30
2022-10-25T12:40:28.653Z,17.30
2022-10-25T12:43:01.870Z,17.20
2022-10-25T12:45:46.095Z,17.20
2022-10-25T12:48:30.870Z,17.00
2022-10-25T12:51:18.967Z,17.00
2022-10-25T12:54:16.461Z,17.10
2022-10-25T12:56:59.783Z,17.10
2022-10-25T12:59:58.022Z,17.00
2022-10-25T13:03:04.658Z,16.80
2022-10-25T13:05:57.442Z,16.60
2022-10-25T13:08:27.962Z,16.60
2022-10-25T13:11:00.141Z,16.60
2022-10-25T13:13:30.893Z,16.70
2022-10-25T13:16:00.625Z,16.80
2022-10-25T13:18:40.347Z,16.90
2022-10-25T13:21:12.026Z,16.90
2022-10-25T13:23:59.654Z,16.90
2022-10-25T13:27:15.304Z,16.90
2022-10-25T13:29:49.547Z,16.80
2022-10-25T13:32:20.031Z,16.80
2022-10-25T13:34:48.430Z,16.80
2022-10-25T13:40:27.230Z,16.80
2022-10-25T13:43:05.222Z,16.80
2022-10-25T13:45:40.805Z,16.90
2022-10-25T13:48:20.370Z,16.90
2022-10-25T13:50:53.150Z,16.90
2022-10-25T13:53:24.191Z,16.80
2022-10-25T13:56:04.058Z,16.70
2022-10-25T13:58:45.905Z,16.70
2022-10-25T14:01:58.194Z,16.60
2022-10-25T14:04:38.549Z,16.50
2022-10-25T14:07:44.946Z,16.50
2022-10-25T14:10:36.208Z,16.50
2022-10-25T14:13:20.444Z,16.50
2022-10-25T14:15:58.220Z,16.50
2022-10-25T14:18:27.916Z,16.50
2022-10-25T14:20:59.307Z,16.40
2022-10-25T14:23:32.400Z,16.50
2022-10-25T14:26:01.853Z,16.50
2022-10-25T14:28:33.405Z,16.40
2022-10-25T14:31:03.419Z,16.40
2022-10-25T14:33:36.568Z,16.40
2022-10-25T14:36:12.733Z,16.40
2022-10-25T14:38:52.274Z,16.40
2022-10-25T14:41:23.784Z,16.30
2022-10-25T14:43:53.188Z,16.30
2022-10-25T14:46:22.698Z,16.30
2022-10-25T14:48:54.629Z,16.20
2022-10-25T14:51:26.816Z,16.20
2022-10-25T14:53:57.780Z,16.10
2022-10-25T14:56:30.083Z,16.20
2022-10-25T14:59:00.821Z,16.10
2022-10-25T15:01:29.241Z,16.10
2022-10-25T15:04:00.171Z,16.10
2022-10-25T15:06:30.736Z,16.00
2022-10-25T15:09:30.139Z,16.00
2022-10-25T15:12:16.320Z,16.00
2022-10-25T15:14:47.438Z,15.90
2022-10-25T15:17:25.415Z,15.90
2022-10-25T15:20:05.833Z,15.90
2022-10-25T15:22:42.513Z,15.90
2022-10-25T15:25:29.311Z,15.80
2022-10-25T15:28:09.817Z,15.80
2022-10-25T15:30:42.845Z,15.70
2022-10-25T15:33:13.918Z,15.70
2022-10-25T15:35:47.458Z,15.60
2022-10-25T15:38:17.416Z,15.60
2022-10-25T15:40:45.582Z,15.60
2022-10-25T15:43:13.631Z,15.50
2022-10-25T15:45:44.021Z,15.40
2022-10-25T15:48:15.206Z,15.40
2022-10-25T15:50:47.989Z,15.30
2022-10-25T15:53:15.978Z,15.30
2022-10-25T15:55:44.163Z,15.30
2022-10-25T15:58:12.165Z,15.20
2022-10-25T16:00:40.268Z,15.20
2022-10-25T16:03:13.610Z,15.10
2022-10-25T16:05:41.637Z,15.10
2022-10-25T16:08:10.786Z,15.00
2022-10-25T16:10:38.803Z,15.00
2022-10-25T16:13:11.513Z,15.00
2022-10-25T16:15:39.829Z,14.90
2022-10-25T16:18:10.301Z,14.90
2022-10-25T16:20:38.404Z,14.90
2022-10-25T16:23:06.478Z,14.90
2022-10-25T16:25:34.647Z,14.80
2022-10-25T16:28:02.909Z,14.80
2022-10-25T16:30:33.897Z,14.70
2022-10-25T16:33:01.927Z,14.70
2022-10-25T16:35:31.293Z,14.60
2022-10-25T16:37:59.671Z,14.60
2022-10-25T16:40:29.077Z,14.60
2022-10-25T16:42:58.302Z,14.60
2022-10-25T16:45:28.675Z,14.50
2022-10-25T16:47:57.764Z,14.50
2022-10-25T16:50:26.882Z,14.50
2022-10-25T16:52:57.958Z,14.50
2022-10-25T16:55:28.702Z,14.50
2022-10-25T16:57:57.160Z,14.50
2022-10-25T17:00:25.569Z,14.40
2022-10-25T17:02:53.661Z,14.40
2022-10-25T17:05:23.417Z,14.40
2022-10-25T17:07:52.252Z,14.40
2022-10-25T17:10:23.031Z,14.40
2022-10-25T17:12:52.846Z,14.30
2022-10-25T17:15:21.991Z,14.30
2022-10-25T17:17:50.394Z,14.30
2022-10-25T17:20:18.915Z,14.30
2022-10-25T17:22:48.773Z,14.30
2022-10-25T17:25:17.193Z,14.20
2022-10-25T17:27:50.889Z,14.20
2022-10-25T17:30:19.992Z,14.20
2022-10-25T17:32:48.350Z,14.20
2022-10-25T17:35:16.347Z,14.10
2022-10-25T17:37:44.555Z,14.10
2022-10-25T17:40:14.677Z,14.10
2022-10-25T17:42:42.708Z,14.00
2022-10-25T17:45:12.512Z,14.00
2022-10-25T17:47:42.617Z,14.00
2022-10-25T17:50:12.689Z,14.00
2022-10-25T17:52:42.228Z,14.00
2022-10-25T17:55:11.571Z,14.00
2022-10-25T17:57:39.562Z,14.00
2022-10-25T18:00:08.822Z,13.90
2022-10-25T18:02:38.553Z,13.90
2022-10-25T18:05:22.592Z,13.90
2022-10-25T18:07:51.096Z,13.90
2022-10-25T18:10:19.609Z,13.90
2022-10-25T18:12:47.938Z,13.80
2022-10-25T18:15:16.240Z,13.80
2022-10-25T18:17:46.752Z,13.80
2022-10-25T18:20:15.494Z,13.80
2022-10-25T18:22:43.465Z,13.80
2022-10-25T18:25:11.701Z,13.80
2022-10-25T18:27:39.670Z,13.70
2022-10-25T18:30:08.990Z,13.70
2022-10-25T18:32:36.997Z,13.70
2022-10-25T18:35:06.917Z,13.70
2022-10-25T18:37:34.877Z,13.60
2022-10-25T18:40:02.846Z,13.60
2022-10-25T18:42:30.843Z,13.60
2022-10-25T18:44:58.815Z,13.60
2022-10-25T18:47:26.806Z,13.60
2022-10-25T18:49:54.782Z,13.60
2022-10-25T18:52:24.657Z,13.50
2022-10-25T18:54:53.476Z,13.50
2022-10-25T18:57:21.519Z,13.50
2022-10-25T18:59:49.526Z,13.50
2022-10-25T19:02:18.036Z,13.50
2022-10-25T19:04:46.125Z,13.40
2022-10-25T19:07:14.124Z,13.40
2022-10-25T19:09:43.508Z,13.40
2022-10-25T19:12:11.512Z,13.40
2022-10-25T19:14:39.919Z,13.30
2022-10-25T19:17:07.966Z,13.20
2022-10-25T19:19:36.004Z,13.20
2022-10-25T19:22:03.979Z,13.10
2022-10-25T19:24:33.586Z,13.10
2022-10-25T19:27:02.947Z,13.10
2022-10-25T19:29:30.975Z,13.10
2022-10-25T19:31:58.999Z,13.10
2022-10-25T19:34:27.114Z,13.00
2022-10-25T19:36:56.680Z,13.00
2022-10-25T19:39:27.907Z,12.90
2022-10-25T19:41:55.897Z,12.90
2022-10-25T19:44:25.462Z,12.90
2022-10-25T19:46:53.859Z,12.80
2022-10-25T19:49:21.807Z,12.80
2022-10-25T19:51:49.861Z,12.70
2022-10-25T19:54:17.838Z,12.70
2022-10-25T19:56:47.190Z,12.70
2022-10-25T19:59:15.264Z,12.70
2022-10-25T20:01:45.954Z,12.60
2022-10-25T20:04:14.390Z,12.60
2022-10-25T20:06:42.474Z,12.50
2022-10-25T20:09:11.001Z,12.50
2022-10-25T20:11:39.025Z,12.50
2022-10-25T20:14:08.473Z,12.50
2022-10-25T20:16:36.705Z,12.50
2022-10-25T20:19:06.266Z,12.50
2022-10-25T20:21:36.621Z,12.50
2022-10-25T20:24:06.467Z,12.40
2022-10-25T20:26:36.843Z,12.40
2022-10-25T20:29:07.167Z,12.40
2022-10-25T20:31:36.048Z,12.30
2022-10-25T20:34:05.567Z,12.30
2022-10-25T20:36:33.601Z,12.30
2022-10-25T20:39:01.606Z,12.20
2022-10-25T20:41:31.621Z,12.20
2022-10-25T20:44:02.867Z,12.20
2022-10-25T20:46:30.959Z,12.20
2022-10-25T20:48:59.822Z,12.10
2022-10-25T20:51:29.542Z,12.10
2022-10-25T20:53:57.886Z,12.10
2022-10-25T20:56:25.998Z,12.00
2022-10-25T20:58:53.936Z,12.00
2022-10-25T21:01:22.076Z,12.00
2022-10-25T21:03:50.136Z,12.00
2022-10-25T21:06:18.096Z,12.00
2022-10-25T21:08:47.419Z,11.90
2022-10-25T21:11:15.416Z,11.90
2022-10-25T21:13:43.401Z,11.90
2022-10-25T21:16:13.192Z,11.90
2022-10-25T21:18:41.761Z,11.90
2022-10-25T21:21:11.921Z,11.80
2022-10-25T21:23:39.877Z,11.80
2022-10-25T21:26:09.987Z,11.80
2022-10-25T21:28:39.944Z,11.80
2022-10-25T21:31:09.665Z,11.80
2022-10-25T21:33:38.074Z,11.80
2022-10-25T21:36:08.900Z,11.70
2022-10-25T21:38:37.064Z,11.70
2022-10-25T21:41:12.639Z,11.70
2022-10-25T21:43:44.090Z,11.70
2022-10-25T21:46:12.566Z,11.70
2022-10-25T21:48:40.594Z,11.70
2022-10-25T21:51:08.760Z,11.60
2022-10-25T21:53:36.983Z,11.60
2022-10-25T21:56:11.512Z,11.60
2022-10-25T21:58:39.542Z,11.60
2022-10-25T22:01:12.204Z,11.60
2022-10-25T22:03:40.944Z,11.60
2022-10-25T22:06:10.249Z,11.50
2022-10-25T22:08:38.420Z,11.50
2022-10-25T22:11:11.810Z,11.50
2022-10-25T22:13:39.953Z,11.40
2022-10-25T22:16:10.390Z,11.40
2022-10-25T22:18:38.476Z,11.40
2022-10-25T22:21:08.633Z,11.40
2022-10-25T22:23:37.101Z,11.40
2022-10-25T22:26:08.250Z,11.40
2022-10-25T22:28:40.789Z,11.40
2022-10-25T22:31:11.454Z,11.40
2022-10-25T22:33:40.160Z,11.40
2022-10-25T22:36:10.952Z,11.40
2022-10-25T22:38:39.762Z,11.40
2022-10-25T22:41:10.606Z,11.50
2022-10-25T22:43:40.618Z,11.50
2022-10-25T22:46:11.782Z,11.50
2022-10-25T22:48:41.343Z,11.50
2022-10-25T22:51:10.531Z,11.50
2022-10-25T22:53:39.335Z,11.60
2022-10-25T22:56:09.366Z,11.60
2022-10-25T22:58:39.109Z,11.60
2022-10-25T23:01:09.218Z,11.60
2022-10-25T23:03:38.500Z,11.60
2022-10-25T23:06:07.986Z,11.60
2022-10-25T23:08:35.938Z,11.60
2022-10-25T23:11:05.760Z,11.60
2022-10-25T23:13:35.646Z,11.50
2022-10-25T23:16:05.315Z,11.50
2022-10-25T23:18:34.079Z,11.50
2022-10-25T23:21:03.878Z,11.40
2022-10-25T23:23:35.340Z,11.40
2022-10-25T23:26:03.715Z,11.40
2022-10-25T23:28:32.268Z,11.30
2022-10-25T23:31:06.090Z,11.30
2022-10-25T23:33:34.387Z,11.30
2022-10-25T23:36:03.634Z,11.20
2022-10-25T23:38:31.597Z,11.30
2022-10-25T23:40:59.605Z,11.30
2022-10-25T23:43:28.184Z,11.20
2022-10-25T23:45:56.284Z,11.20
2022-10-25T23:48:25.665Z,11.10
2022-10-25T23:50:57.551Z,11.10
2022-10-25T23:53:25.890Z,11.10
2022-10-25T23:55:54.129Z,11.00
2022-10-25T23:58:22.671Z,11.00
